sensor_id;sensor_type;location;lat;lon;timestamp;P1;durP1;ratioP1;P2;durP2;ratioP2
70953;SDS011;58618;47.490;8.736;2022-07-29T00:02:16;4.57;;;3.50;;
70953;SDS011;58618;47.490;8.736;2022-07-29T00:05:04;3.85;;;3.10;;
70953;SDS011;58618;47.490;8.736;2022-07-29T00:07:52;5.32;;;3.42;;
70953;SDS011;58618;47.490;8.736;2022-07-29T00:10:40;3.90;;;3.22;;
70953;SDS011;58618;47.490;8.736;2022-07-29T00:13:27;3.85;;;2.97;;
70953;SDS011;58618;47.490;8.736;2022-07-29T00:16:16;3.87;;;3.00;;
70953;SDS011;58618;47.490;8.736;2022-07-29T00:19:04;4.90;;;2.95;;
70953;SDS011;58618;47.490;8.736;2022-07-29T00:21:51;5.22;;;3.17;;
70953;SDS011;58618;47.490;8.736;2022-07-29T00:24:38;3.80;;;3.00;;
70953;SDS011;58618;47.490;8.736;2022-07-29T00:27:26;3.83;;;3.00;;
70953;SDS011;58618;47.490;8.736;2022-07-29T00:30:13;3.70;;;2.80;;
70953;SDS011;58618;47.490;8.736;2022-07-29T00:33:02;3.38;;;2.83;;
70953;SDS011;58618;47.490;8.736;2022-07-29T00:35:50;3.95;;;3.00;;
70953;SDS011;58618;47.490;8.736;2022-07-29T00:38:36;3.85;;;3.30;;
70953;SDS011;58618;47.490;8.736;2022-07-29T00:41:23;4.72;;;3.15;;
70953;SDS011;58618;47.490;8.736;2022-07-29T00:44:10;3.47;;;2.87;;
70953;SDS011;58618;47.490;8.736;2022-07-29T00:46:58;4.35;;;3.40;;
70953;SDS011;58618;47.490;8.736;2022-07-29T00:49:46;3.70;;;2.90;;
70953;SDS011;58618;47.490;8.736;2022-07-29T00:52:35;4.13;;;3.30;;
70953;SDS011;58618;47.490;8.736;2022-07-29T00:55:24;4.18;;;2.92;;
70953;SDS011;58618;47.490;8.736;2022-07-29T00:58:12;4.50;;;3.00;;
70953;SDS011;58618;47.490;8.736;2022-07-29T01:01:00;3.40;;;2.90;;
70953;SDS011;58618;47.490;8.736;2022-07-29T01:03:47;4.43;;;3.42;;
70953;SDS011;58618;47.490;8.736;2022-07-29T01:06:36;4.95;;;3.50;;
70953;SDS011;58618;47.490;8.736;2022-07-29T01:09:23;4.55;;;3.22;;
70953;SDS011;58618;47.490;8.736;2022-07-29T01:12:12;3.63;;;3.00;;
70953;SDS011;58618;47.490;8.736;2022-07-29T01:15:02;6.05;;;2.65;;
70953;SDS011;58618;47.490;8.736;2022-07-29T01:17:53;4.80;;;2.80;;
70953;SDS011;58618;47.490;8.736;2022-07-29T01:20:58;4.07;;;2.90;;
70953;SDS011;58618;47.490;8.736;2022-07-29T01:24:14;3.33;;;2.63;;
70953;SDS011;58618;47.490;8.736;2022-07-29T01:27:20;5.07;;;3.10;;
70953;SDS011;58618;47.490;8.736;2022-07-29T01:30:21;5.75;;;3.25;;
70953;SDS011;58618;47.490;8.736;2022-07-29T01:33:13;5.32;;;3.30;;
70953;SDS011;58618;47.490;8.736;2022-07-29T01:36:18;4.60;;;3.20;;
70953;SDS011;58618;47.490;8.736;2022-07-29T01:39:11;4.20;;;2.88;;
70953;SDS011;58618;47.490;8.736;2022-07-29T01:42:02;3.93;;;2.43;;
70953;SDS011;58618;47.490;8.736;2022-07-29T01:44:57;4.28;;;2.80;;
70953;SDS011;58618;47.490;8.736;2022-07-29T01:47:49;4.60;;;2.85;;
70953;SDS011;58618;47.490;8.736;2022-07-29T01:50:45;3.70;;;2.45;;
70953;SDS011;58618;47.490;8.736;2022-07-29T01:53:35;3.03;;;2.70;;
70953;SDS011;58618;47.490;8.736;2022-07-29T01:56:25;3.23;;;2.50;;
70953;SDS011;58618;47.490;8.736;2022-07-29T01:59:18;3.60;;;2.65;;
70953;SDS011;58618;47.490;8.736;2022-07-29T02:02:07;3.22;;;2.83;;
70953;SDS011;58618;47.490;8.736;2022-07-29T02:04:58;4.63;;;2.63;;
70953;SDS011;58618;47.490;8.736;2022-07-29T02:07:48;3.38;;;2.80;;
70953;SDS011;58618;47.490;8.736;2022-07-29T02:10:37;4.03;;;2.53;;
70953;SDS011;58618;47.490;8.736;2022-07-29T02:13:27;3.50;;;2.60;;
70953;SDS011;58618;47.490;8.736;2022-07-29T02:16:15;3.08;;;2.65;;
70953;SDS011;58618;47.490;8.736;2022-07-29T02:19:07;5.03;;;2.65;;
70953;SDS011;58618;47.490;8.736;2022-07-29T02:21:58;3.83;;;2.53;;
70953;SDS011;58618;47.490;8.736;2022-07-29T02:24:46;3.67;;;3.00;;
70953;SDS011;58618;47.490;8.736;2022-07-29T02:27:37;3.92;;;2.60;;
70953;SDS011;58618;47.490;8.736;2022-07-29T02:30:25;4.70;;;2.78;;
70953;SDS011;58618;47.490;8.736;2022-07-29T02:33:15;4.18;;;3.00;;
70953;SDS011;58618;47.490;8.736;2022-07-29T02:36:04;3.40;;;3.03;;
70953;SDS011;58618;47.490;8.736;2022-07-29T02:38:53;3.63;;;2.90;;
70953;SDS011;58618;47.490;8.736;2022-07-29T02:41:46;5.20;;;2.83;;
70953;SDS011;58618;47.490;8.736;2022-07-29T02:44:35;3.33;;;2.85;;
70953;SDS011;58618;47.490;8.736;2022-07-29T02:47:24;6.75;;;2.90;;
70953;SDS011;58618;47.490;8.736;2022-07-29T02:50:20;3.15;;;2.65;;
70953;SDS011;58618;47.490;8.736;2022-07-29T02:53:17;3.33;;;2.80;;
70953;SDS011;58618;47.490;8.736;2022-07-29T02:56:10;3.38;;;2.67;;
70953;SDS011;58618;47.490;8.736;2022-07-29T02:59:01;3.58;;;2.70;;
70953;SDS011;58618;47.490;8.736;2022-07-29T03:01:51;3.10;;;2.70;;
70953;SDS011;58618;47.490;8.736;2022-07-29T03:04:39;4.95;;;2.90;;
70953;SDS011;58618;47.490;8.736;2022-07-29T03:07:29;6.23;;;3.17;;
70953;SDS011;58618;47.490;8.736;2022-07-29T03:10:16;3.30;;;2.80;;
70953;SDS011;58618;47.490;8.736;2022-07-29T03:13:06;3.80;;;2.80;;
70953;SDS011;58618;47.490;8.736;2022-07-29T03:15:55;3.35;;;2.58;;
70953;SDS011;58618;47.490;8.736;2022-07-29T03:18:43;3.28;;;2.20;;
70953;SDS011;58618;47.490;8.736;2022-07-29T03:21:31;3.20;;;2.60;;
70953;SDS011;58618;47.490;8.736;2022-07-29T03:24:28;4.43;;;2.70;;
70953;SDS011;58618;47.490;8.736;2022-07-29T03:27:17;3.75;;;2.58;;
70953;SDS011;58618;47.490;8.736;2022-07-29T03:30:06;4.68;;;2.30;;
70953;SDS011;58618;47.490;8.736;2022-07-29T03:32:55;5.05;;;2.50;;
70953;SDS011;58618;47.490;8.736;2022-07-29T03:35:42;3.03;;;2.27;;
70953;SDS011;58618;47.490;8.736;2022-07-29T03:38:30;5.53;;;2.40;;
70953;SDS011;58618;47.490;8.736;2022-07-29T03:41:22;4.13;;;2.40;;
70953;SDS011;58618;47.490;8.736;2022-07-29T03:44:11;3.70;;;2.40;;
70953;SDS011;58618;47.490;8.736;2022-07-29T03:47:01;3.88;;;2.83;;
70953;SDS011;58618;47.490;8.736;2022-07-29T03:49:51;3.47;;;2.50;;
70953;SDS011;58618;47.490;8.736;2022-07-29T03:52:40;2.90;;;2.35;;
70953;SDS011;58618;47.490;8.736;2022-07-29T03:55:29;4.55;;;2.45;;
70953;SDS011;58618;47.490;8.736;2022-07-29T03:58:25;5.22;;;2.60;;
70953;SDS011;58618;47.490;8.736;2022-07-29T04:01:13;3.85;;;2.70;;
70953;SDS011;58618;47.490;8.736;2022-07-29T04:04:04;4.70;;;2.90;;
70953;SDS011;58618;47.490;8.736;2022-07-29T04:06:52;4.18;;;2.58;;
70953;SDS011;58618;47.490;8.736;2022-07-29T04:09:39;3.75;;;2.40;;
70953;SDS011;58618;47.490;8.736;2022-07-29T04:12:27;2.78;;;2.42;;
70953;SDS011;58618;47.490;8.736;2022-07-29T04:15:14;3.13;;;2.40;;
70953;SDS011;58618;47.490;8.736;2022-07-29T04:18:01;3.13;;;2.50;;
70953;SDS011;58618;47.490;8.736;2022-07-29T04:20:50;3.20;;;2.80;;
70953;SDS011;58618;47.490;8.736;2022-07-29T04:23:37;2.92;;;2.50;;
70953;SDS011;58618;47.490;8.736;2022-07-29T04:26:25;3.80;;;2.58;;
70953;SDS011;58618;47.490;8.736;2022-07-29T04:29:12;4.18;;;2.58;;
70953;SDS011;58618;47.490;8.736;2022-07-29T04:32:00;5.33;;;2.70;;
70953;SDS011;58618;47.490;8.736;2022-07-29T04:34:47;2.67;;;2.33;;
70953;SDS011;58618;47.490;8.736;2022-07-29T04:37:36;3.92;;;2.40;;
70953;SDS011;58618;47.490;8.736;2022-07-29T04:40:23;2.60;;;2.40;;
70953;SDS011;58618;47.490;8.736;2022-07-29T04:43:10;3.72;;;2.30;;
70953;SDS011;58618;47.490;8.736;2022-07-29T04:45:58;3.30;;;2.30;;
70953;SDS011;58618;47.490;8.736;2022-07-29T04:48:45;4.47;;;2.42;;
70953;SDS011;58618;47.490;8.736;2022-07-29T04:51:33;2.85;;;2.17;;
70953;SDS011;58618;47.490;8.736;2022-07-29T04:54:22;2.67;;;2.25;;
70953;SDS011;58618;47.490;8.736;2022-07-29T04:57:09;3.42;;;2.22;;
70953;SDS011;58618;47.490;8.736;2022-07-29T05:00:05;4.37;;;2.77;;
70953;SDS011;58618;47.490;8.736;2022-07-29T05:02:53;3.65;;;2.25;;
70953;SDS011;58618;47.490;8.736;2022-07-29T05:05:41;3.45;;;2.08;;
70953;SDS011;58618;47.490;8.736;2022-07-29T05:08:28;2.25;;;1.73;;
70953;SDS011;58618;47.490;8.736;2022-07-29T05:11:17;4.35;;;2.30;;
70953;SDS011;58618;47.490;8.736;2022-07-29T05:14:04;2.73;;;2.40;;
70953;SDS011;58618;47.490;8.736;2022-07-29T05:16:51;3.15;;;1.90;;
70953;SDS011;58618;47.490;8.736;2022-07-29T05:19:43;2.20;;;1.80;;
70953;SDS011;58618;47.490;8.736;2022-07-29T05:22:31;3.70;;;1.95;;
70953;SDS011;58618;47.490;8.736;2022-07-29T05:25:19;2.20;;;2.00;;
70953;SDS011;58618;47.490;8.736;2022-07-29T05:28:22;2.40;;;1.60;;
70953;SDS011;58618;47.490;8.736;2022-07-29T05:31:09;2.42;;;1.80;;
70953;SDS011;58618;47.490;8.736;2022-07-29T05:33:57;2.70;;;1.88;;
70953;SDS011;58618;47.490;8.736;2022-07-29T05:36:44;3.00;;;2.20;;
70953;SDS011;58618;47.490;8.736;2022-07-29T05:39:32;3.25;;;2.10;;
70953;SDS011;58618;47.490;8.736;2022-07-29T05:42:19;3.00;;;1.80;;
70953;SDS011;58618;47.490;8.736;2022-07-29T05:45:08;3.53;;;2.15;;
70953;SDS011;58618;47.490;8.736;2022-07-29T05:47:56;3.45;;;2.00;;
70953;SDS011;58618;47.490;8.736;2022-07-29T05:50:43;3.63;;;2.10;;
70953;SDS011;58618;47.490;8.736;2022-07-29T05:53:31;2.83;;;2.20;;
70953;SDS011;58618;47.490;8.736;2022-07-29T05:56:18;2.40;;;1.90;;
70953;SDS011;58618;47.490;8.736;2022-07-29T05:59:05;3.25;;;1.73;;
70953;SDS011;58618;47.490;8.736;2022-07-29T06:01:54;2.45;;;2.10;;
70953;SDS011;58618;47.490;8.736;2022-07-29T06:04:42;2.40;;;1.90;;
70953;SDS011;58618;47.490;8.736;2022-07-29T06:07:30;3.40;;;2.13;;
70953;SDS011;58618;47.490;8.736;2022-07-29T06:10:18;4.57;;;2.40;;
70953;SDS011;58618;47.490;8.736;2022-07-29T06:13:06;2.60;;;1.95;;
70953;SDS011;58618;47.490;8.736;2022-07-29T06:15:53;3.85;;;2.40;;
70953;SDS011;58618;47.490;8.736;2022-07-29T06:18:42;4.45;;;3.03;;
70953;SDS011;58618;47.490;8.736;2022-07-29T06:21:29;7.32;;;3.78;;
70953;SDS011;58618;47.490;8.736;2022-07-29T06:24:16;4.70;;;3.00;;
70953;SDS011;58618;47.490;8.736;2022-07-29T06:27:03;5.95;;;3.50;;
70953;SDS011;58618;47.490;8.736;2022-07-29T06:29:51;5.63;;;3.13;;
70953;SDS011;58618;47.490;8.736;2022-07-29T06:32:38;4.63;;;2.58;;
70953;SDS011;58618;47.490;8.736;2022-07-29T06:35:27;4.93;;;2.60;;
70953;SDS011;58618;47.490;8.736;2022-07-29T06:38:14;3.00;;;2.50;;
70953;SDS011;58618;47.490;8.736;2022-07-29T06:41:02;5.85;;;2.80;;
70953;SDS011;58618;47.490;8.736;2022-07-29T06:43:50;4.80;;;2.70;;
70953;SDS011;58618;47.490;8.736;2022-07-29T06:46:38;3.80;;;2.20;;
70953;SDS011;58618;47.490;8.736;2022-07-29T06:49:25;3.17;;;2.13;;
70953;SDS011;58618;47.490;8.736;2022-07-29T06:52:14;2.43;;;1.97;;
70953;SDS011;58618;47.490;8.736;2022-07-29T06:55:02;3.05;;;1.98;;
70953;SDS011;58618;47.490;8.736;2022-07-29T06:57:49;2.13;;;1.50;;
70953;SDS011;58618;47.490;8.736;2022-07-29T07:00:37;3.70;;;1.88;;
70953;SDS011;58618;47.490;8.736;2022-07-29T07:03:24;3.58;;;1.80;;
70953;SDS011;58618;47.490;8.736;2022-07-29T07:06:12;3.43;;;1.80;;
70953;SDS011;58618;47.490;8.736;2022-07-29T07:09:00;3.03;;;1.70;;
70953;SDS011;58618;47.490;8.736;2022-07-29T07:11:48;2.20;;;1.52;;
70953;SDS011;58618;47.490;8.736;2022-07-29T07:14:35;2.65;;;1.80;;
70953;SDS011;58618;47.490;8.736;2022-07-29T07:17:22;3.42;;;1.80;;
70953;SDS011;58618;47.490;8.736;2022-07-29T07:20:10;3.63;;;1.67;;
70953;SDS011;58618;47.490;8.736;2022-07-29T07:22:57;2.60;;;1.95;;
70953;SDS011;58618;47.490;8.736;2022-07-29T07:25:46;2.95;;;2.10;;
70953;SDS011;58618;47.490;8.736;2022-07-29T07:28:33;2.50;;;1.98;;
70953;SDS011;58618;47.490;8.736;2022-07-29T07:31:21;2.33;;;1.80;;
70953;SDS011;58618;47.490;8.736;2022-07-29T07:34:08;3.53;;;2.20;;
70953;SDS011;58618;47.490;8.736;2022-07-29T07:36:56;2.10;;;1.80;;
70953;SDS011;58618;47.490;8.736;2022-07-29T07:39:43;4.72;;;1.90;;
70953;SDS011;58618;47.490;8.736;2022-07-29T07:42:32;2.80;;;1.88;;
70953;SDS011;58618;47.490;8.736;2022-07-29T07:45:19;2.47;;;2.00;;
70953;SDS011;58618;47.490;8.736;2022-07-29T07:48:07;2.60;;;1.90;;
70953;SDS011;58618;47.490;8.736;2022-07-29T07:50:55;2.47;;;1.85;;
70953;SDS011;58618;47.490;8.736;2022-07-29T07:53:43;11.45;;;2.30;;
70953;SDS011;58618;47.490;8.736;2022-07-29T07:56:30;5.78;;;2.10;;
70953;SDS011;58618;47.490;8.736;2022-07-29T07:59:19;5.72;;;2.58;;
70953;SDS011;58618;47.490;8.736;2022-07-29T08:02:06;7.97;;;2.70;;
70953;SDS011;58618;47.490;8.736;2022-07-29T08:04:54;4.15;;;3.03;;
70953;SDS011;58618;47.490;8.736;2022-07-29T08:07:41;6.25;;;3.17;;
70953;SDS011;58618;47.490;8.736;2022-07-29T08:10:29;5.13;;;3.20;;
70953;SDS011;58618;47.490;8.736;2022-07-29T08:13:34;5.70;;;3.33;;
70953;SDS011;58618;47.490;8.736;2022-07-29T08:16:24;3.57;;;3.13;;
70953;SDS011;58618;47.490;8.736;2022-07-29T08:19:11;5.75;;;3.22;;
70953;SDS011;58618;47.490;8.736;2022-07-29T08:21:58;5.00;;;3.20;;
70953;SDS011;58618;47.490;8.736;2022-07-29T08:24:45;5.03;;;3.40;;
70953;SDS011;58618;47.490;8.736;2022-07-29T08:27:38;5.03;;;3.70;;
70953;SDS011;58618;47.490;8.736;2022-07-29T08:30:25;3.40;;;2.97;;
70953;SDS011;58618;47.490;8.736;2022-07-29T08:33:14;6.28;;;2.88;;
70953;SDS011;58618;47.490;8.736;2022-07-29T08:36:01;4.15;;;3.30;;
70953;SDS011;58618;47.490;8.736;2022-07-29T08:38:49;3.63;;;3.10;;
70953;SDS011;58618;47.490;8.736;2022-07-29T08:41:36;4.43;;;3.50;;
70953;SDS011;58618;47.490;8.736;2022-07-29T08:44:24;5.07;;;3.90;;
70953;SDS011;58618;47.490;8.736;2022-07-29T08:47:13;6.13;;;3.42;;
70953;SDS011;58618;47.490;8.736;2022-07-29T08:50:02;6.75;;;3.70;;
70953;SDS011;58618;47.490;8.736;2022-07-29T08:52:50;6.32;;;3.80;;
70953;SDS011;58618;47.490;8.736;2022-07-29T08:55:38;4.38;;;3.40;;
70953;SDS011;58618;47.490;8.736;2022-07-29T08:58:27;4.70;;;3.40;;
70953;SDS011;58618;47.490;8.736;2022-07-29T09:01:21;7.68;;;3.97;;
70953;SDS011;58618;47.490;8.736;2022-07-29T09:04:11;4.75;;;3.20;;
70953;SDS011;58618;47.490;8.736;2022-07-29T09:07:02;4.75;;;3.17;;
70953;SDS011;58618;47.490;8.736;2022-07-29T09:09:51;4.25;;;3.17;;
70953;SDS011;58618;47.490;8.736;2022-07-29T09:12:38;4.13;;;3.20;;
70953;SDS011;58618;47.490;8.736;2022-07-29T09:15:26;5.95;;;3.40;;
70953;SDS011;58618;47.490;8.736;2022-07-29T09:18:27;4.63;;;3.30;;
70953;SDS011;58618;47.490;8.736;2022-07-29T09:21:20;5.10;;;3.58;;
70953;SDS011;58618;47.490;8.736;2022-07-29T09:27:36;3.43;;;3.07;;
70953;SDS011;58618;47.490;8.736;2022-07-29T09:30:23;5.13;;;3.10;;
70953;SDS011;58618;47.490;8.736;2022-07-29T09:33:11;3.75;;;2.85;;
70953;SDS011;58618;47.490;8.736;2022-07-29T09:35:59;5.03;;;3.15;;
70953;SDS011;58618;47.490;8.736;2022-07-29T09:38:56;3.47;;;2.70;;
70953;SDS011;58618;47.490;8.736;2022-07-29T09:41:47;4.50;;;2.80;;
70953;SDS011;58618;47.490;8.736;2022-07-29T09:44:42;4.10;;;2.72;;
70953;SDS011;58618;47.490;8.736;2022-07-29T09:47:40;3.38;;;2.88;;
70953;SDS011;58618;47.490;8.736;2022-07-29T09:50:37;3.83;;;2.72;;
70953;SDS011;58618;47.490;8.736;2022-07-29T09:53:30;4.47;;;2.75;;
70953;SDS011;58618;47.490;8.736;2022-07-29T09:56:18;3.30;;;2.77;;
70953;SDS011;58618;47.490;8.736;2022-07-29T09:59:07;3.72;;;2.60;;
70953;SDS011;58618;47.490;8.736;2022-07-29T10:01:56;3.13;;;2.78;;
70953;SDS011;58618;47.490;8.736;2022-07-29T10:04:44;5.50;;;2.42;;
70953;SDS011;58618;47.490;8.736;2022-07-29T10:07:44;3.13;;;2.70;;
70953;SDS011;58618;47.490;8.736;2022-07-29T10:10:33;4.30;;;2.73;;
70953;SDS011;58618;47.490;8.736;2022-07-29T10:13:22;6.43;;;2.88;;
70953;SDS011;58618;47.490;8.736;2022-07-29T10:16:14;4.05;;;2.58;;
70953;SDS011;58618;47.490;8.736;2022-07-29T10:19:03;4.72;;;2.60;;
70953;SDS011;58618;47.490;8.736;2022-07-29T10:21:50;3.53;;;2.88;;
70953;SDS011;58618;47.490;8.736;2022-07-29T10:24:39;3.67;;;2.77;;
70953;SDS011;58618;47.490;8.736;2022-07-29T10:27:26;4.68;;;2.70;;
70953;SDS011;58618;47.490;8.736;2022-07-29T10:30:14;7.03;;;2.90;;
70953;SDS011;58618;47.490;8.736;2022-07-29T10:33:09;3.55;;;2.95;;
70953;SDS011;58618;47.490;8.736;2022-07-29T10:36:10;3.22;;;2.63;;
70953;SDS011;58618;47.490;8.736;2022-07-29T10:39:11;3.63;;;2.43;;
70953;SDS011;58618;47.490;8.736;2022-07-29T10:42:11;3.08;;;2.40;;
70953;SDS011;58618;47.490;8.736;2022-07-29T10:45:04;3.30;;;2.78;;
70953;SDS011;58618;47.490;8.736;2022-07-29T10:48:02;3.58;;;2.40;;
70953;SDS011;58618;47.490;8.736;2022-07-29T10:50:55;3.40;;;2.80;;
70953;SDS011;58618;47.490;8.736;2022-07-29T10:53:46;2.77;;;2.47;;
70953;SDS011;58618;47.490;8.736;2022-07-29T10:56:35;6.07;;;3.03;;
70953;SDS011;58618;47.490;8.736;2022-07-29T10:59:22;5.03;;;2.70;;
70953;SDS011;58618;47.490;8.736;2022-07-29T11:08:47;5.27;;;3.17;;
70953;SDS011;58618;47.490;8.736;2022-07-29T11:12:07;3.10;;;2.80;;
70953;SDS011;58618;47.490;8.736;2022-07-29T11:15:51;4.38;;;2.58;;
70953;SDS011;58618;47.490;8.736;2022-07-29T11:22:02;5.72;;;3.00;;
70953;SDS011;58618;47.490;8.736;2022-07-29T11:25:00;4.80;;;3.47;;
70953;SDS011;58618;47.490;8.736;2022-07-29T11:28:08;3.80;;;3.17;;
70953;SDS011;58618;47.490;8.736;2022-07-29T11:31:00;4.00;;;3.10;;
70953;SDS011;58618;47.490;8.736;2022-07-29T11:33:48;3.58;;;2.90;;
70953;SDS011;58618;47.490;8.736;2022-07-29T11:36:35;3.47;;;3.10;;
70953;SDS011;58618;47.490;8.736;2022-07-29T11:40:16;3.37;;;3.07;;
70953;SDS011;58618;47.490;8.736;2022-07-29T11:43:04;4.43;;;3.17;;
70953;SDS011;58618;47.490;8.736;2022-07-29T11:45:52;6.63;;;3.63;;
70953;SDS011;58618;47.490;8.736;2022-07-29T11:48:41;3.70;;;3.40;;
70953;SDS011;58618;47.490;8.736;2022-07-29T11:51:29;4.15;;;3.33;;
70953;SDS011;58618;47.490;8.736;2022-07-29T11:54:21;5.77;;;3.67;;
70953;SDS011;58618;47.490;8.736;2022-07-29T11:57:13;5.45;;;3.30;;
70953;SDS011;58618;47.490;8.736;2022-07-29T12:00:03;4.68;;;3.10;;
70953;SDS011;58618;47.490;8.736;2022-07-29T12:02:53;7.90;;;3.30;;
70953;SDS011;58618;47.490;8.736;2022-07-29T12:05:42;4.72;;;3.35;;
70953;SDS011;58618;47.490;8.736;2022-07-29T12:08:30;3.53;;;3.03;;
70953;SDS011;58618;47.490;8.736;2022-07-29T12:11:27;5.35;;;3.22;;
70953;SDS011;58618;47.490;8.736;2022-07-29T12:17:25;3.83;;;2.95;;
70953;SDS011;58618;47.490;8.736;2022-07-29T12:20:14;2.83;;;2.53;;
70953;SDS011;58618;47.490;8.736;2022-07-29T12:23:09;5.77;;;3.10;;
70953;SDS011;58618;47.490;8.736;2022-07-29T12:25:58;5.50;;;2.70;;
70953;SDS011;58618;47.490;8.736;2022-07-29T12:28:46;3.33;;;2.60;;
70953;SDS011;58618;47.490;8.736;2022-07-29T12:31:35;3.38;;;3.00;;
70953;SDS011;58618;47.490;8.736;2022-07-29T12:34:23;3.95;;;3.00;;
70953;SDS011;58618;47.490;8.736;2022-07-29T12:37:13;4.53;;;2.80;;
70953;SDS011;58618;47.490;8.736;2022-07-29T12:40:03;5.07;;;2.90;;
70953;SDS011;58618;47.490;8.736;2022-07-29T12:43:05;3.60;;;3.00;;
70953;SDS011;58618;47.490;8.736;2022-07-29T12:45:55;6.20;;;3.33;;
70953;SDS011;58618;47.490;8.736;2022-07-29T12:48:49;3.20;;;2.80;;
70953;SDS011;58618;47.490;8.736;2022-07-29T12:51:40;3.20;;;2.90;;
70953;SDS011;58618;47.490;8.736;2022-07-29T12:54:28;6.22;;;3.30;;
70953;SDS011;58618;47.490;8.736;2022-07-29T12:57:15;5.93;;;3.22;;
70953;SDS011;58618;47.490;8.736;2022-07-29T13:00:04;5.03;;;3.03;;
70953;SDS011;58618;47.490;8.736;2022-07-29T13:02:55;3.30;;;2.90;;
70953;SDS011;58618;47.490;8.736;2022-07-29T13:05:44;4.63;;;3.10;;
70953;SDS011;58618;47.490;8.736;2022-07-29T13:08:32;3.88;;;2.88;;
70953;SDS011;58618;47.490;8.736;2022-07-29T13:11:29;3.95;;;2.90;;
70953;SDS011;58618;47.490;8.736;2022-07-29T13:14:29;4.07;;;3.20;;
70953;SDS011;58618;47.490;8.736;2022-07-29T13:17:18;4.97;;;3.20;;
70953;SDS011;58618;47.490;8.736;2022-07-29T13:20:09;3.73;;;3.00;;
70953;SDS011;58618;47.490;8.736;2022-07-29T13:23:01;6.93;;;3.00;;
70953;SDS011;58618;47.490;8.736;2022-07-29T13:25:48;4.30;;;3.13;;
70953;SDS011;58618;47.490;8.736;2022-07-29T13:28:35;5.50;;;3.15;;
70953;SDS011;58618;47.490;8.736;2022-07-29T13:31:23;7.82;;;3.60;;
70953;SDS011;58618;47.490;8.736;2022-07-29T13:34:10;8.63;;;4.20;;
70953;SDS011;58618;47.490;8.736;2022-07-29T13:36:57;7.78;;;4.20;;
70953;SDS011;58618;47.490;8.736;2022-07-29T13:39:46;9.88;;;5.22;;
70953;SDS011;58618;47.490;8.736;2022-07-29T13:42:34;9.85;;;5.55;;
70953;SDS011;58618;47.490;8.736;2022-07-29T13:45:21;9.13;;;5.85;;
70953;SDS011;58618;47.490;8.736;2022-07-29T13:48:09;8.20;;;5.00;;
70953;SDS011;58618;47.490;8.736;2022-07-29T13:50:56;6.97;;;3.97;;
70953;SDS011;58618;47.490;8.736;2022-07-29T13:53:45;9.32;;;5.40;;
70953;SDS011;58618;47.490;8.736;2022-07-29T13:56:33;10.65;;;6.38;;
70953;SDS011;58618;47.490;8.736;2022-07-29T13:59:21;8.35;;;6.03;;
70953;SDS011;58618;47.490;8.736;2022-07-29T14:02:08;8.80;;;6.03;;
70953;SDS011;58618;47.490;8.736;2022-07-29T14:04:57;10.35;;;7.00;;
70953;SDS011;58618;47.490;8.736;2022-07-29T14:07:44;8.35;;;6.40;;
70953;SDS011;58618;47.490;8.736;2022-07-29T14:10:31;9.68;;;6.57;;
70953;SDS011;58618;47.490;8.736;2022-07-29T14:13:20;7.05;;;6.22;;
70953;SDS011;58618;47.490;8.736;2022-07-29T14:16:07;7.20;;;5.00;;
70953;SDS011;58618;47.490;8.736;2022-07-29T14:18:54;6.10;;;5.30;;
70953;SDS011;58618;47.490;8.736;2022-07-29T14:21:42;5.60;;;4.70;;
70953;SDS011;58618;47.490;8.736;2022-07-29T14:24:29;6.70;;;4.70;;
70953;SDS011;58618;47.490;8.736;2022-07-29T14:27:17;8.23;;;5.03;;
70953;SDS011;58618;47.490;8.736;2022-07-29T14:30:06;6.07;;;4.20;;
70953;SDS011;58618;47.490;8.736;2022-07-29T14:32:54;6.57;;;4.20;;
70953;SDS011;58618;47.490;8.736;2022-07-29T14:35:42;6.30;;;4.53;;
70953;SDS011;58618;47.490;8.736;2022-07-29T14:38:29;4.47;;;3.40;;
70953;SDS011;58618;47.490;8.736;2022-07-29T14:41:16;5.50;;;4.18;;
70953;SDS011;58618;47.490;8.736;2022-07-29T14:44:04;4.63;;;3.80;;
70953;SDS011;58618;47.490;8.736;2022-07-29T14:46:53;4.47;;;3.83;;
70953;SDS011;58618;47.490;8.736;2022-07-29T14:49:40;5.00;;;4.00;;
70953;SDS011;58618;47.490;8.736;2022-07-29T14:52:28;5.47;;;4.25;;
70953;SDS011;58618;47.490;8.736;2022-07-29T14:55:15;4.55;;;3.72;;
70953;SDS011;58618;47.490;8.736;2022-07-29T14:58:02;6.43;;;4.50;;
70953;SDS011;58618;47.490;8.736;2022-07-29T15:00:50;5.60;;;4.57;;
70953;SDS011;58618;47.490;8.736;2022-07-29T15:03:39;4.72;;;4.03;;
70953;SDS011;58618;47.490;8.736;2022-07-29T15:06:26;7.65;;;4.50;;
70953;SDS011;58618;47.490;8.736;2022-07-29T15:09:13;5.45;;;4.30;;
70953;SDS011;58618;47.490;8.736;2022-07-29T15:12:01;7.23;;;5.30;;
70953;SDS011;58618;47.490;8.736;2022-07-29T15:14:49;7.75;;;5.25;;
70953;SDS011;58618;47.490;8.736;2022-07-29T15:17:36;7.45;;;5.35;;
70953;SDS011;58618;47.490;8.736;2022-07-29T15:20:24;6.45;;;5.30;;
70953;SDS011;58618;47.490;8.736;2022-07-29T15:23:12;5.72;;;4.78;;
70953;SDS011;58618;47.490;8.736;2022-07-29T15:26:00;6.50;;;5.17;;
70953;SDS011;58618;47.490;8.736;2022-07-29T15:28:47;7.15;;;5.78;;
70953;SDS011;58618;47.490;8.736;2022-07-29T15:31:35;7.55;;;6.15;;
70953;SDS011;58618;47.490;8.736;2022-07-29T15:34:22;7.85;;;6.20;;
70953;SDS011;58618;47.490;8.736;2022-07-29T15:37:11;5.40;;;4.90;;
70953;SDS011;58618;47.490;8.736;2022-07-29T15:39:58;6.50;;;5.40;;
70953;SDS011;58618;47.490;8.736;2022-07-29T15:42:46;7.38;;;6.22;;
70953;SDS011;58618;47.490;8.736;2022-07-29T15:45:36;7.60;;;5.38;;
70953;SDS011;58618;47.490;8.736;2022-07-29T15:48:24;6.50;;;5.80;;
70953;SDS011;58618;47.490;8.736;2022-07-29T15:51:12;7.90;;;5.60;;
70953;SDS011;58618;47.490;8.736;2022-07-29T15:54:01;8.33;;;5.97;;
70953;SDS011;58618;47.490;8.736;2022-07-29T15:56:49;8.02;;;5.57;;
70953;SDS011;58618;47.490;8.736;2022-07-29T15:59:36;6.00;;;5.40;;
70953;SDS011;58618;47.490;8.736;2022-07-29T16:02:24;6.15;;;5.43;;
70953;SDS011;58618;47.490;8.736;2022-07-29T16:05:11;5.82;;;5.20;;
70953;SDS011;58618;47.490;8.736;2022-07-29T16:07:58;6.87;;;5.37;;
70953;SDS011;58618;47.490;8.736;2022-07-29T16:10:47;8.10;;;6.32;;
70953;SDS011;58618;47.490;8.736;2022-07-29T16:13:34;6.47;;;5.57;;
70953;SDS011;58618;47.490;8.736;2022-07-29T16:16:22;7.07;;;5.93;;
70953;SDS011;58618;47.490;8.736;2022-07-29T16:19:09;6.78;;;5.70;;
70953;SDS011;58618;47.490;8.736;2022-07-29T16:21:57;6.80;;;6.10;;
70953;SDS011;58618;47.490;8.736;2022-07-29T16:24:45;6.07;;;5.45;;
70953;SDS011;58618;47.490;8.736;2022-07-29T16:27:33;5.55;;;5.03;;
70953;SDS011;58618;47.490;8.736;2022-07-29T16:30:21;6.53;;;5.80;;
70953;SDS011;58618;47.490;8.736;2022-07-29T16:33:08;7.80;;;6.65;;
70953;SDS011;58618;47.490;8.736;2022-07-29T16:35:56;7.17;;;5.90;;
70953;SDS011;58618;47.490;8.736;2022-07-29T16:38:43;8.07;;;5.97;;
70953;SDS011;58618;47.490;8.736;2022-07-29T16:41:31;7.78;;;6.10;;
70953;SDS011;58618;47.490;8.736;2022-07-29T16:44:20;6.63;;;5.85;;
70953;SDS011;58618;47.490;8.736;2022-07-29T16:47:08;10.32;;;6.15;;
70953;SDS011;58618;47.490;8.736;2022-07-29T16:49:55;7.80;;;5.90;;
70953;SDS011;58618;47.490;8.736;2022-07-29T16:52:42;6.13;;;5.25;;
70953;SDS011;58618;47.490;8.736;2022-07-29T16:55:30;7.45;;;5.50;;
70953;SDS011;58618;47.490;8.736;2022-07-29T16:58:17;5.97;;;5.15;;
70953;SDS011;58618;47.490;8.736;2022-07-29T17:01:06;6.68;;;5.07;;
70953;SDS011;58618;47.490;8.736;2022-07-29T17:03:53;6.87;;;5.60;;
70953;SDS011;58618;47.490;8.736;2022-07-29T17:06:53;7.20;;;5.80;;
70953;SDS011;58618;47.490;8.736;2022-07-29T17:09:40;6.05;;;5.03;;
70953;SDS011;58618;47.490;8.736;2022-07-29T17:12:28;6.45;;;5.00;;
70953;SDS011;58618;47.490;8.736;2022-07-29T17:15:15;7.00;;;5.22;;
70953;SDS011;58618;47.490;8.736;2022-07-29T17:18:05;7.17;;;5.00;;
70953;SDS011;58618;47.490;8.736;2022-07-29T17:20:53;9.80;;;5.00;;